Latest Weather Observations for Century Mine

IDQ60801

Issued at 4:35 pm EST Saturday 2 August 2014 (issued every 30 minutes, with the page automatically refreshed every 10 minutes)

About weather observations | Map of weather stations | Latest weather observations for QLD | Other Formats
Station Details ID: 029167 Name: CENTURY MINE Lat: -18.76 Lon: 138.71 Height: 126.8 m
Data from the previous 72 hours. | See also: Recent months at Century Mine
Date/Time
EST
Temp
°C
App
Temp
°C
Dew
Point
Rel
Hum
%
Delta-T
°C
Wind Press
QNH
hPa
Press
MSL
hPa
Rain
since 9 am
mm
Dir
 
Spd
km/h
Gust
km/h
Spd
kts
Gust
kts
02/04:30pm 26.8 21.5 -3.9 13 13.4 S 15 22 8 12 1017.4 - 0.0
02/04:00pm 25.9 20.6 -3.6 14 12.8 SSE 15 26 8 14 1017.6 - 0.0
02/03:30pm 26.1 21.2 -3.5 14 13.0 S 13 20 7 11 1018.0 - 0.0
02/03:00pm 26.6 22.1 -3.1 14 13.1 S 11 24 6 13 1018.4 1018.0 0.0
02/02:30pm 26.0 21.2 -2.6 15 12.7 SSE 13 20 7 11 1018.6 - 0.0
02/02:00pm 25.1 20.6 -3.3 15 12.4 SSE 11 17 6 9 1019.2 - 0.0
02/01:30pm 24.2 18.9 -4.0 15 12.0 SE 15 24 8 13 1019.7 - 0.0
02/01:00pm 24.6 19.0 -2.9 16 12.0 SE 17 26 9 14 1020.1 - 0.0
02/12:30pm 24.2 18.0 -3.2 16 11.9 ESE 20 28 11 15 1020.8 - 0.0
02/12:00pm 23.9 18.1 -1.8 18 11.4 ESE 19 28 10 15 1021.3 1020.9 0.0
02/11:30am 22.9 17.3 -2.6 18 11.0 SE 17 26 9 14 1021.9 - 0.0
02/11:00am 21.6 15.4 -3.0 19 10.4 SE 20 32 11 17 1022.4 - 0.0
02/10:30am 21.4 16.3 -1.8 21 10.1 SE 15 28 8 15 1022.7 - 0.0
02/10:00am 20.8 15.0 -1.7 22 9.7 ESE 19 28 10 15 1022.6 - 0.0
02/09:30am 19.5 13.7 -1.6 24 9.0 SSE 19 28 10 15 1022.6 - 0.0
02/09:00am 18.9 13.5 -1.0 26 8.5 SSE 17 26 9 14 1022.2 1021.8 0.0
02/08:30am 17.9 13.8 0.1 30 7.8 SSE 11 17 6 9 1021.5 - 0.0
02/08:00am 16.7 13.1 0.8 34 7.0 SSE 9 13 5 7 1021.2 - 0.0
02/07:30am 15.6 12.4 0.6 36 6.5 SSE 7 11 4 6 1020.8 - 0.0
02/07:00am 16.3 12.8 1.2 36 6.7 SSE 9 15 5 8 1020.1 - 0.0
02/06:30am 16.2 12.7 1.1 36 6.6 S 9 13 5 7 1019.8 - 0.0
02/06:00am 16.9 13.4 1.0 34 7.0 S 9 15 5 8 1019.3 1019.0 0.0
02/05:30am 17.4 13.9 1.4 34 7.2 S 9 15 5 8 1019.1 - 0.0
02/05:00am 17.8 14.3 1.3 33 7.4 S 9 15 5 8 1018.9 - 0.0
02/04:30am 17.9 15.3 1.0 32 7.5 S 4 7 2 4 1018.7 - 0.0
02/04:00am 19.3 14.7 1.3 30 8.2 SSE 15 24 8 13 1018.5 - 0.0
02/03:30am 19.5 14.8 1.0 29 8.4 S 15 26 8 14 1018.7 - 0.0
02/03:00am 19.3 14.5 -0.1 27 8.5 S 15 26 8 14 1018.7 1018.4 0.0
02/02:30am 20.0 15.5 -0.1 26 8.9 S 13 20 7 11 1018.9 - 0.0
02/02:00am 20.4 15.8 -0.8 24 9.3 SSE 13 20 7 11 1019.1 - 0.0
02/01:30am 20.8 16.2 -1.1 23 9.6 S 13 19 7 10 1019.3 - 0.0
02/01:00am 21.6 16.6 -1.0 22 10.0 S 15 26 8 14 1019.1 - 0.0
02/12:30am 22.3 16.5 -1.7 20 10.5 S 19 30 10 16 1019.0 - 0.0
02/12:00am 22.7 17.1 -2.8 18 11.0 S 17 30 9 16 1018.7 1018.4 0.0
 
Date/Time
EST
Temp
°C
App
Temp
°C
Dew
Point
Rel
Hum
%
Delta-T
°C
Wind Press
QNH
hPa
Press
MSL
hPa
Rain
since 9 am
mm
Dir
 
Spd
km/h
Gust
km/h
Spd
kts
Gust
kts
01/11:30pm 23.2 17.8 -4.8 15 11.7 S 15 24 8 13 1018.5 - 0.0
01/11:00pm 23.8 18.4 -4.4 15 11.9 S 15 22 8 12 1018.3 - 0.0
01/10:30pm 24.2 19.2 -4.0 15 12.0 S 13 19 7 10 1018.1 - 0.0
01/10:00pm 24.9 19.6 -3.5 15 12.3 S 15 24 8 13 1017.9 - 0.0
01/09:30pm 21.6 17.8 -0.4 23 9.8 S 9 13 5 7 1017.6 - 0.0
01/09:00pm 20.6 17.1 -1.2 23 9.5 S 7 9 4 5 1017.2 1016.8 0.0
01/08:30pm 22.8 19.2 -2.0 19 10.9 SE 7 9 4 5 1016.9 - 0.0
01/08:00pm 24.8 21.2 -1.9 17 11.9 SE 7 11 4 6 1016.5 - 0.0
01/07:30pm 25.0 21.3 -2.5 16 12.1 S 7 9 4 5 1016.0 - 0.0
01/07:00pm 26.2 22.6 -2.4 15 12.8 SSW 7 9 4 5 1015.5 - 0.0
01/06:30pm 28.5 24.5 -2.6 13 14.1 S 9 11 5 6 1015.1 - 0.0
01/06:00pm 30.2 26.0 -1.2 13 14.8 S 11 17 6 9 1014.9 1014.5 0.0
01/05:30pm 31.4 27.5 -1.4 12 15.5 S 9 17 5 9 1014.6 - 0.0
01/05:00pm 32.1 28.3 -0.9 12 15.8 S 9 15 5 8 1014.5 - 0.0
01/04:30pm 31.8 28.3 -1.1 12 15.7 ENE 7 15 4 8 1014.4 - 0.0
01/04:00pm 32.3 28.5 -0.7 12 15.9 ESE 9 22 5 12 1014.3 - 0.0
01/03:30pm 31.8 27.6 -1.1 12 15.7 SE 11 20 6 11 1014.5 - 0.0
01/03:00pm 33.0 29.3 -0.2 12 16.2 ESE 9 17 5 9 1014.9 1014.5 0.0
01/02:30pm 32.1 28.1 0.2 13 15.6 E 11 17 6 9 1015.3 - 0.0
01/02:00pm 31.9 27.5 0.1 13 15.5 ENE 13 20 7 11 1015.8 - 0.0
01/01:30pm 32.3 28.7 0.4 13 15.7 ENE 9 20 5 11 1016.4 - 0.0
01/01:00pm 31.6 27.1 -0.1 13 15.4 E 13 22 7 12 1017.0 - 0.0
01/12:30pm 30.8 26.2 -0.8 13 15.0 ESE 13 20 7 11 1017.8 - 0.0
01/12:00pm 30.4 25.2 -0.1 14 14.6 E 17 24 9 13 1018.1 1017.7 0.0
01/11:30am 29.5 24.9 -0.8 14 14.3 SE 13 24 7 13 1018.5 - 0.0
01/11:00am 28.4 24.2 -0.7 15 13.6 E 11 17 6 9 1018.7 - 0.0
01/10:30am 28.5 24.1 0.3 16 13.5 E 13 20 7 11 1018.8 - 0.0
01/10:00am 26.8 23.2 2.7 21 11.9 ESE 11 19 6 10 1018.8 - 0.0
01/09:30am 25.0 21.3 4.7 27 10.2 ESE 13 19 7 10 1018.6 - 0.0
01/09:00am 23.4 21.5 7.5 36 8.3 SE 7 13 4 7 1018.4 1018.0 0.0
01/08:30am 20.7 21.1 12.4 59 4.7 S 2 6 1 3 1018.0 - 0.0
01/08:00am 17.5 18.3 14.8 84 1.6 S 4 6 2 3 1017.5 - 0.0
01/07:30am 15.3 15.1 13.7 90 0.9 S 7 11 4 6 1017.2 - 0.0
01/07:00am 14.1 14.4 12.1 88 1.1 SW 2 6 1 3 1017.1 - 0.0
01/06:30am 13.4 12.4 10.9 85 1.3 SSW 7 9 4 5 1016.7 - 0.0
01/06:00am 13.7 12.6 10.5 81 1.7 S 7 9 4 5 1016.4 1016.0 0.0
01/05:30am 14.0 14.3 11.0 82 1.6 CALM 0 0 0 0 1016.3 - 0.0
01/05:00am 14.8 15.1 10.8 77 2.1 CALM 0 0 0 0 1016.0 - 0.0
01/04:30am 15.5 16.3 12.6 83 1.6 CALM 0 6 0 3 1015.7 - 0.0
01/04:00am 15.4 14.5 11.2 76 2.3 SSW 7 9 4 5 1015.6 - 0.0
01/03:30am 15.3 14.5 10.9 75 2.4 SSW 6 9 3 5 1015.7 - 0.0
01/03:00am 15.8 14.7 10.6 71 2.8 SSW 7 7 4 4 1015.8 1015.4 0.0
01/02:30am 16.0 14.9 10.7 71 2.8 SSW 7 9 4 5 1016.0 - 0.0
01/02:00am 16.0 15.1 10.5 70 2.9 S 6 9 3 5 1016.0 - 0.0
01/01:30am 16.3 16.4 10.2 67 3.2 CALM 0 0 0 0 1016.2 - 0.0
01/01:00am 17.0 17.3 10.8 67 3.3 CALM 0 0 0 0 1016.3 - 0.0
01/12:30am 17.4 17.8 11.4 68 3.3 CALM 0 0 0 0 1016.4 - 0.0
01/12:00am 18.0 18.6 11.8 67 3.4 CALM 0 0 0 0 1016.5 1016.1 0.0
 
Date/Time
EST
Temp
°C
App
Temp
°C
Dew
Point
Rel
Hum
%
Delta-T
°C
Wind Press
QNH
hPa
Press
MSL
hPa
Rain
since 9 am
mm
Dir
 
Spd
km/h
Gust
km/h
Spd
kts
Gust
kts
31/11:30pm 18.8 19.2 11.1 61 4.2 CALM 0 0 0 0 1016.6 - 0.0
31/11:00pm 20.6 20.5 12.1 58 4.8 E 4 6 2 3 1016.6 - 0.0
31/10:30pm 22.7 21.9 12.9 54 5.6 NNE 9 17 5 9 1016.4 - 0.0
31/10:00pm 19.9 18.1 5.2 38 7.2 SW 4 19 2 10 1015.9 - 0.0
31/09:30pm 20.2 18.2 4.3 35 7.7 SW 4 7 2 4 1015.5 - 0.0
31/09:00pm 21.5 19.8 4.1 32 8.5 S 2 7 1 4 1015.3 1015.0 0.0
31/08:30pm 21.9 19.4 4.5 32 8.6 SSW 7 9 4 5 1015.1 - 0.0
31/08:00pm 22.4 19.8 4.0 30 9.0 SSW 7 9 4 5 1014.8 - 0.0
31/07:30pm 23.9 21.3 4.3 28 9.7 SW 7 9 4 5 1014.4 - 0.0
31/07:00pm 25.5 23.0 4.0 25 10.7 SSW 6 7 3 4 1014.3 - 0.0
31/06:30pm 27.9 25.2 3.6 21 12.3 SSW 7 9 4 5 1014.1 - 0.0
31/06:00pm 30.9 28.4 4.6 19 13.7 WSW 7 11 4 6 1014.1 1013.8 0.0
31/05:30pm 31.4 28.0 4.2 18 14.2 WSW 11 15 6 8 1013.9 - 0.0
31/05:00pm 31.8 28.9 4.6 18 14.3 WSW 9 15 5 8 1013.7 - 0.0
31/04:30pm 32.1 28.7 4.0 17 14.6 S 11 17 6 9 1013.7 - 0.0
31/04:00pm 32.8 29.9 4.6 17 14.9 S 9 20 5 11 1013.9 - 0.0
31/03:30pm 32.4 29.6 5.0 18 14.5 WSW 9 20 5 11 1014.1 - 0.0
31/03:00pm 32.5 29.5 4.3 17 14.8 S 9 15 5 8 1014.2 1013.9 0.0
31/02:30pm 32.1 29.8 4.8 18 14.4 SSW 6 11 3 6 1014.6 - 0.0
31/02:00pm 32.0 29.7 4.7 18 14.4 NNW 6 20 3 11 1015.0 - 0.0
31/01:30pm 31.2 29.1 4.1 18 14.1 S 4 9 2 5 1015.3 - 0.0
31/01:00pm 30.6 28.4 3.6 18 13.8 N 4 7 2 4 1016.0 - 0.0
31/12:30pm 30.6 27.7 2.8 17 14.1 NNE 7 13 4 7 1016.5 - 0.0
31/12:00pm 29.9 27.1 3.0 18 13.6 SSE 7 15 4 8 1016.9 1016.6 0.0
31/11:30am 29.5 27.3 3.5 19 13.2 E 4 7 2 4 1017.4 - 0.0
31/11:00am 28.2 25.5 3.8 21 12.4 SSE 7 13 4 7 1017.7 - 0.0
31/10:30am 27.5 25.1 4.5 23 11.7 SE 6 15 3 8 1018.0 - 0.0
31/10:00am 26.4 23.8 5.9 27 10.7 S 9 13 5 7 1018.1 - 0.0
31/09:30am 25.1 23.0 8.1 34 9.1 S 9 13 5 7 1018.0 - 0.0
31/09:00am 23.2 21.6 8.9 40 7.7 S 7 11 4 6 1017.8 1017.5 0.0
31/08:30am 20.8 20.0 10.9 53 5.5 S 6 9 3 5 1017.8 - 0.0
31/08:00am 17.5 16.6 11.3 67 3.4 SSE 7 9 4 5 1017.5 - 0.0
31/07:30am 15.0 14.5 10.8 76 2.2 S 4 7 2 4 1017.2 - 0.0
31/07:00am 14.6 13.4 10.4 76 2.2 SSW 7 9 4 5 1017.1 - 0.0
31/06:30am 14.6 13.8 11.0 79 1.9 SSW 6 9 3 5 1016.7 - 0.0
31/06:00am 13.0 11.3 7.5 69 2.7 SSW 6 9 3 5 1016.3 1016.0 0.0
31/05:30am 13.4 12.8 7.6 68 2.9 CALM 0 0 0 0 1016.0 - 0.0
31/05:00am 13.7 11.7 7.2 65 3.2 SSW 7 7 4 4 1015.9 - 0.0
31/04:30am 14.1 13.5 7.2 63 3.4 CALM 0 4 0 2 1016.0 - 0.0
31/04:00am 14.2 12.7 6.8 61 3.6 S 4 7 2 4 1016.0 - 0.0
31/03:30am 14.7 12.7 7.0 60 3.8 S 7 7 4 4 1016.2 - 0.0
31/03:00am 15.2 14.4 6.5 56 4.2 CALM 0 0 0 0 1016.4 1016.1 0.0
31/02:30am 16.5 15.5 7.4 55 4.6 SSW 2 7 1 4 1016.5 - 0.0
31/02:00am 15.0 13.8 6.6 57 4.1 SSW 2 9 1 5 1016.5 - 0.0
31/01:30am 15.4 14.5 5.9 53 4.6 CALM 0 0 0 0 1016.7 - 0.0
31/01:00am 16.2 15.3 6.1 51 4.9 CALM 0 6 0 3 1016.7 - 0.0
31/12:30am 16.5 15.5 5.8 49 5.2 CALM 0 0 0 0 1016.9 - 0.0
31/12:00am 16.9 14.7 5.5 47 5.5 WNW 6 7 3 4 1016.9 1016.6 0.0
 
Date/Time
EST
Temp
°C
App
Temp
°C
Dew
Point
Rel
Hum
%
Delta-T
°C
Wind Press
QNH
hPa
Press
MSL
hPa
Rain
since 9 am
mm
Dir
 
Spd
km/h
Gust
km/h
Spd
kts
Gust
kts
30/11:30pm 17.2 16.2 5.5 46 5.7 CALM 0 0 0 0 1017.1 - 0.0
30/11:00pm 18.0 16.6 5.6 44 6.1 WSW 2 7 1 4 1017.2 - 0.0
30/10:30pm 19.2 17.9 6.0 42 6.6 NNE 2 7 1 4 1017.3 - 0.0
30/10:00pm 18.6 15.9 5.5 42 6.4 S 9 9 5 5 1017.1 - 0.0
30/09:30pm 18.8 16.4 5.3 41 6.6 SSW 7 7 4 4 1017.2 - 0.0
30/09:00pm 19.3 17.0 5.0 39 7.0 SSW 6 7 3 4 1017.3 1017.0 0.0
30/08:30pm 20.0 18.1 4.9 37 7.4 SSE 4 6 2 3 1016.9 - 0.0
30/08:00pm 21.0 18.7 4.6 34 8.0 SSE 6 6 3 3 1016.5 - 0.0
30/07:30pm 22.4 20.0 4.5 31 8.8 ESE 6 6 3 3 1016.1 - 0.0
30/07:00pm 25.0 22.6 4.2 26 10.4 E 6 7 3 4 1015.7 - 0.0
30/06:30pm 27.4 24.9 4.5 23 11.7 ESE 7 9 4 5 1015.5 - 0.0
30/06:00pm 29.2 26.3 4.6 21 12.7 ESE 9 15 5 8 1015.2 1014.9 0.0
30/05:30pm 30.1 27.1 4.0 19 13.4 ESE 9 17 5 9 1015.1 - 0.0
30/05:00pm 30.6 27.1 3.6 18 13.8 ESE 11 19 6 10 1014.9 - 0.0

Other Formats:

Comma delimited format used in spreadsheet applications
http://www.bom.gov.au/fwo/IDQ60801/IDQ60801.94261.axf

JavaScript Object Notation format (JSON) in row-major order
http://www.bom.gov.au/fwo/IDQ60801/IDQ60801.94261.json